• Join FlightAware (Why Join?)
  • Login
  • US Flag 
05:43AM EST


 

Airport Tracker/Info


-or-


 

Live Flight TrackerFlight Track Log ✈ N612CT ✈ 20-Sep-2013 ✈ KAPF - KSRQ

Flight Track Log - Related Links

Times and Time Zones

All times are in EDT time to prevent confusion due to time zone crossing. See the N612CT flight status page for this flight to view local times or setup timezone preferences in your user account.

Time Position Orientation Groundspeed Altitude Reporting Facility
EDT Latitude Longitude Course Direction KTS MPH feet Rate Location/Type
05:15PM 26.4258 -81.8806 341° North  Level FlightAware Approximate
05:16PM 26.4714 -81.8981 341° North  Level FlightAware Approximate
05:17PM 26.5170 -81.9157 341° North  Level FlightAware Approximate
05:18PM 26.5625 -81.9333 341° North  Level FlightAware Approximate
05:19PM 26.6081 -81.9509 341° North  Level FlightAware Approximate
05:20PM 26.6536 -81.9685 341° North  Level FlightAware Approximate
05:21PM 26.6931 -81.9994 318° Northwest  Level Estimated
05:22PM 26.7372 -82.0210 336° Northwest  Level FlightAware Approximate
05:23PM 26.7764 -82.0525 313° West  Level Estimated
05:24PM 26.8184 -82.0789 331° Northwest  Level FlightAware Approximate
05:25PM 26.8605 -82.1053 331° Northwest  Level FlightAware Approximate
05:26PM 26.8991 -82.1376 318° Northwest  Level Estimated
05:27PM 26.9378 -82.1699 318° Northwest  Level Estimated
05:28PM 26.9783 -82.1991 327° Northwest  Level FlightAware Approximate
05:29PM 27.0168 -82.2317 318° Northwest  Level Estimated
05:29PM 26.9000 -82.1500 310° West 163 188 8,000  Level Tampa TRACON
05:30PM 27.0552 -82.2643 318° Northwest  Level Estimated
05:30PM 26.9333 -82.1833 318° Northwest 163 188 8,000  Level Tampa TRACON
05:31PM 27.0947 -82.2953 325° Northwest  Level FlightAware Approximate
05:31PM 26.9833 -82.2167 329° Northwest 175 201 7,300  Level Tampa TRACON
05:32PM 27.1330 -82.3282 310° West  Level Estimated
05:33PM 27.1709 -82.3617 322° Northwest  Level FlightAware Approximate
05:33PM 27.0500 -82.3000 312° West 184 212 6,000  Level Tampa TRACON
05:34PM 27.2092 -82.3945 310° West  Level Estimated
05:34PM 27.0833 -82.3500 307° West 175 201 5,700  Level Tampa TRACON
05:35PM 27.1000 -82.4000 291° West 183 211 5,200 -540 Descending Tampa TRACON
05:36PM 27.1333 -82.4333 318° Northwest 182 209 4,700 -540 Descending Tampa TRACON
05:37PM 27.1500 -82.4833 291° West 183 211 4,200 -360 Descending Tampa TRACON
05:38PM 27.1833 -82.5333 307° West 176 203 4,000 -120 Descending Tampa TRACON
05:39PM 27.2167 -82.5667 318° Northwest 169 194 4,000 -300 Level Tampa TRACON
05:40PM 27.2500 -82.6167 307° West 181 208 3,400 -540 Descending Tampa TRACON
05:41PM 27.2833 -82.6500 318° Northwest 179 206 2,900 -420 Descending Tampa TRACON
05:42PM 27.3333 -82.6667 344° North 165 190 2,600 -480 Descending Tampa TRACON
05:43PM 27.3833 -82.6667 360° North 154 177 2,100 -600 Descending Tampa TRACON
05:44PM 27.4167 -82.6500 24° Northeast 144 166 1,500 -360 Descending Tampa TRACON
05:45PM 27.4333 -82.6167 61° Northeast 107 123 1,400 -300 Descending Tampa TRACON
05:46PM 27.4333 -82.6000 90° East 84 97 900 -540 Descending Tampa TRACON
05:47PM 27.4167 -82.5833 138° Southeast 86 99 400 -540 Descending Tampa TRACON
05:49PM 27.3954 -82.5544 130° Southeast  Level Estimated
05:56PM 27.3954 -82.5544 13° North  Level Estimated